sensor_id;sensor_type;location;lat;lon;timestamp;temperature;humidity
14061;DHT22;7105;43.616;1.434;2023-02-28T00:00:21;2.40;99.90
14061;DHT22;7105;43.616;1.434;2023-02-28T00:02:47;2.40;99.90
14061;DHT22;7105;43.616;1.434;2023-02-28T00:05:15;2.30;99.90
14061;DHT22;7105;43.616;1.434;2023-02-28T00:07:41;2.30;99.90
14061;DHT22;7105;43.616;1.434;2023-02-28T00:10:09;2.30;99.90
14061;DHT22;7105;43.616;1.434;2023-02-28T00:12:36;2.30;99.90
14061;DHT22;7105;43.616;1.434;2023-02-28T00:15:05;2.20;99.90
14061;DHT22;7105;43.616;1.434;2023-02-28T00:17:31;2.20;99.90
14061;DHT22;7105;43.616;1.434;2023-02-28T00:19:57;2.20;99.90
14061;DHT22;7105;43.616;1.434;2023-02-28T00:22:27;2.20;99.90
14061;DHT22;7105;43.616;1.434;2023-02-28T00:24:53;2.10;99.90
14061;DHT22;7105;43.616;1.434;2023-02-28T00:27:19;2.20;99.90
14061;DHT22;7105;43.616;1.434;2023-02-28T00:29:46;2.20;99.90
14061;DHT22;7105;43.616;1.434;2023-02-28T00:32:12;2.20;99.90
14061;DHT22;7105;43.616;1.434;2023-02-28T00:34:38;2.10;99.90
14061;DHT22;7105;43.616;1.434;2023-02-28T00:37:05;2.10;99.90
14061;DHT22;7105;43.616;1.434;2023-02-28T00:39:31;2.10;99.90
14061;DHT22;7105;43.616;1.434;2023-02-28T00:41:58;2.00;99.90
14061;DHT22;7105;43.616;1.434;2023-02-28T00:44:24;2.00;99.90
14061;DHT22;7105;43.616;1.434;2023-02-28T00:46:49;2.00;99.90
14061;DHT22;7105;43.616;1.434;2023-02-28T00:49:15;1.90;99.90
14061;DHT22;7105;43.616;1.434;2023-02-28T00:51:41;1.80;99.90
14061;DHT22;7105;43.616;1.434;2023-02-28T00:54:07;1.80;99.90
14061;DHT22;7105;43.616;1.434;2023-02-28T00:56:33;1.70;99.90
14061;DHT22;7105;43.616;1.434;2023-02-28T00:58:58;1.80;99.90
14061;DHT22;7105;43.616;1.434;2023-02-28T01:01:24;1.80;99.90
14061;DHT22;7105;43.616;1.434;2023-02-28T01:03:50;1.80;99.90
14061;DHT22;7105;43.616;1.434;2023-02-28T01:06:15;1.80;99.90
14061;DHT22;7105;43.616;1.434;2023-02-28T01:08:41;1.90;99.90
14061;DHT22;7105;43.616;1.434;2023-02-28T01:11:09;1.80;99.90
14061;DHT22;7105;43.616;1.434;2023-02-28T01:13:34;1.90;99.90
14061;DHT22;7105;43.616;1.434;2023-02-28T01:16:00;1.90;99.90
14061;DHT22;7105;43.616;1.434;2023-02-28T01:18:26;1.90;99.90
14061;DHT22;7105;43.616;1.434;2023-02-28T01:20:51;1.90;99.90
14061;DHT22;7105;43.616;1.434;2023-02-28T01:23:19;1.90;99.90
14061;DHT22;7105;43.616;1.434;2023-02-28T01:25:45;1.90;99.90
14061;DHT22;7105;43.616;1.434;2023-02-28T01:28:11;1.90;99.90
14061;DHT22;7105;43.616;1.434;2023-02-28T01:30:36;1.90;99.90
14061;DHT22;7105;43.616;1.434;2023-02-28T01:33:02;1.80;99.90
14061;DHT22;7105;43.616;1.434;2023-02-28T01:35:28;1.90;99.90
14061;DHT22;7105;43.616;1.434;2023-02-28T01:37:53;1.90;99.90
14061;DHT22;7105;43.616;1.434;2023-02-28T01:40:19;1.90;99.90
14061;DHT22;7105;43.616;1.434;2023-02-28T01:42:45;1.80;99.90
14061;DHT22;7105;43.616;1.434;2023-02-28T01:45:31;1.80;99.90
14061;DHT22;7105;43.616;1.434;2023-02-28T01:48:05;1.80;99.90
14061;DHT22;7105;43.616;1.434;2023-02-28T01:50:36;1.80;99.90
14061;DHT22;7105;43.616;1.434;2023-02-28T01:53:06;1.80;99.90
14061;DHT22;7105;43.616;1.434;2023-02-28T01:55:32;1.80;99.90
14061;DHT22;7105;43.616;1.434;2023-02-28T01:58:00;1.80;99.90
14061;DHT22;7105;43.616;1.434;2023-02-28T02:00:29;1.90;99.90
14061;DHT22;7105;43.616;1.434;2023-02-28T02:03:07;1.90;99.90
14061;DHT22;7105;43.616;1.434;2023-02-28T02:05:37;1.90;99.90
14061;DHT22;7105;43.616;1.434;2023-02-28T02:08:11;1.90;99.90
14061;DHT22;7105;43.616;1.434;2023-02-28T02:10:42;1.90;99.90
14061;DHT22;7105;43.616;1.434;2023-02-28T02:23:48;1.90;99.90
14061;DHT22;7105;43.616;1.434;2023-02-28T02:26:51;2.00;99.90
14061;DHT22;7105;43.616;1.434;2023-02-28T02:35:40;2.00;99.90
14061;DHT22;7105;43.616;1.434;2023-02-28T02:37:52;2.00;99.90
14061;DHT22;7105;43.616;1.434;2023-02-28T02:40:27;2.00;99.90
14061;DHT22;7105;43.616;1.434;2023-02-28T02:43:04;2.00;99.90
14061;DHT22;7105;43.616;1.434;2023-02-28T02:45:42;2.10;99.90
14061;DHT22;7105;43.616;1.434;2023-02-28T02:48:11;2.10;99.90
14061;DHT22;7105;43.616;1.434;2023-02-28T02:50:44;2.10;99.90
14061;DHT22;7105;43.616;1.434;2023-02-28T02:53:12;2.10;99.90
14061;DHT22;7105;43.616;1.434;2023-02-28T02:55:42;2.10;99.90
14061;DHT22;7105;43.616;1.434;2023-02-28T02:58:13;2.10;99.90
14061;DHT22;7105;43.616;1.434;2023-02-28T03:00:46;2.10;99.90
14061;DHT22;7105;43.616;1.434;2023-02-28T03:03:16;2.10;99.90
14061;DHT22;7105;43.616;1.434;2023-02-28T03:05:50;2.10;99.90
14061;DHT22;7105;43.616;1.434;2023-02-28T03:11:39;2.10;99.90
14061;DHT22;7105;43.616;1.434;2023-02-28T03:19:47;2.10;99.90
14061;DHT22;7105;43.616;1.434;2023-02-28T03:24:55;2.10;99.90
14061;DHT22;7105;43.616;1.434;2023-02-28T03:30:05;2.10;99.90
14061;DHT22;7105;43.616;1.434;2023-02-28T03:32:56;2.10;99.90
14061;DHT22;7105;43.616;1.434;2023-02-28T03:35:34;2.10;99.90
14061;DHT22;7105;43.616;1.434;2023-02-28T03:38:28;2.10;99.90
14061;DHT22;7105;43.616;1.434;2023-02-28T03:41:32;2.10;99.90
14061;DHT22;7105;43.616;1.434;2023-02-28T03:44:18;2.10;99.90
14061;DHT22;7105;43.616;1.434;2023-02-28T03:46:52;2.10;99.90
14061;DHT22;7105;43.616;1.434;2023-02-28T03:49:32;2.10;99.90
14061;DHT22;7105;43.616;1.434;2023-02-28T03:52:02;2.10;99.90
14061;DHT22;7105;43.616;1.434;2023-02-28T03:54:34;2.10;99.90
14061;DHT22;7105;43.616;1.434;2023-02-28T03:57:16;2.00;99.90
14061;DHT22;7105;43.616;1.434;2023-02-28T03:59:47;2.00;99.90
14061;DHT22;7105;43.616;1.434;2023-02-28T04:02:14;2.10;99.90
14061;DHT22;7105;43.616;1.434;2023-02-28T04:04:40;2.00;99.90
14061;DHT22;7105;43.616;1.434;2023-02-28T04:07:14;2.00;99.90
14061;DHT22;7105;43.616;1.434;2023-02-28T04:09:40;2.00;99.90
14061;DHT22;7105;43.616;1.434;2023-02-28T04:12:06;1.90;99.90
14061;DHT22;7105;43.616;1.434;2023-02-28T04:14:32;1.90;99.90
14061;DHT22;7105;43.616;1.434;2023-02-28T04:16:57;1.90;99.90
14061;DHT22;7105;43.616;1.434;2023-02-28T04:19:23;1.90;99.90
14061;DHT22;7105;43.616;1.434;2023-02-28T04:21:51;1.90;99.90
14061;DHT22;7105;43.616;1.434;2023-02-28T04:24:20;1.90;99.90
14061;DHT22;7105;43.616;1.434;2023-02-28T04:26:48;1.80;99.90
14061;DHT22;7105;43.616;1.434;2023-02-28T04:29:25;1.80;99.90
14061;DHT22;7105;43.616;1.434;2023-02-28T04:31:51;1.80;99.90
14061;DHT22;7105;43.616;1.434;2023-02-28T04:34:23;1.80;99.90
14061;DHT22;7105;43.616;1.434;2023-02-28T04:36:50;1.80;99.90
14061;DHT22;7105;43.616;1.434;2023-02-28T04:39:17;1.70;99.90
14061;DHT22;7105;43.616;1.434;2023-02-28T04:41:44;1.60;99.90
14061;DHT22;7105;43.616;1.434;2023-02-28T04:44:10;1.60;99.90
14061;DHT22;7105;43.616;1.434;2023-02-28T04:46:36;1.60;99.90
14061;DHT22;7105;43.616;1.434;2023-02-28T04:49:02;1.70;99.90
14061;DHT22;7105;43.616;1.434;2023-02-28T04:51:28;1.60;99.90
14061;DHT22;7105;43.616;1.434;2023-02-28T04:53:54;1.60;99.90
14061;DHT22;7105;43.616;1.434;2023-02-28T04:56:20;1.60;99.90
14061;DHT22;7105;43.616;1.434;2023-02-28T04:58:46;1.60;99.90
14061;DHT22;7105;43.616;1.434;2023-02-28T05:03:40;1.60;99.90
14061;DHT22;7105;43.616;1.434;2023-02-28T05:06:07;1.50;99.90
14061;DHT22;7105;43.616;1.434;2023-02-28T05:08:33;1.50;99.90
14061;DHT22;7105;43.616;1.434;2023-02-28T05:10:59;1.40;99.90
14061;DHT22;7105;43.616;1.434;2023-02-28T05:13:26;1.40;99.90
14061;DHT22;7105;43.616;1.434;2023-02-28T05:15:52;1.40;99.90
14061;DHT22;7105;43.616;1.434;2023-02-28T05:18:18;1.40;99.90
14061;DHT22;7105;43.616;1.434;2023-02-28T05:20:43;1.30;99.90
14061;DHT22;7105;43.616;1.434;2023-02-28T05:23:12;1.30;99.90
14061;DHT22;7105;43.616;1.434;2023-02-28T05:25:38;1.20;99.90
14061;DHT22;7105;43.616;1.434;2023-02-28T05:28:04;1.30;99.90
14061;DHT22;7105;43.616;1.434;2023-02-28T05:30:30;1.20;99.90
14061;DHT22;7105;43.616;1.434;2023-02-28T05:32:57;1.20;99.90
14061;DHT22;7105;43.616;1.434;2023-02-28T05:35:25;1.20;99.90
14061;DHT22;7105;43.616;1.434;2023-02-28T05:37:52;1.10;99.90
14061;DHT22;7105;43.616;1.434;2023-02-28T05:40:18;1.10;99.90
14061;DHT22;7105;43.616;1.434;2023-02-28T05:42:46;1.10;99.90
14061;DHT22;7105;43.616;1.434;2023-02-28T05:45:12;1.00;99.90
14061;DHT22;7105;43.616;1.434;2023-02-28T05:47:37;1.00;99.90
14061;DHT22;7105;43.616;1.434;2023-02-28T05:50:04;1.00;99.90
14061;DHT22;7105;43.616;1.434;2023-02-28T05:52:30;1.00;99.90
14061;DHT22;7105;43.616;1.434;2023-02-28T05:54:55;1.00;99.90
14061;DHT22;7105;43.616;1.434;2023-02-28T05:57:22;1.00;99.90
14061;DHT22;7105;43.616;1.434;2023-02-28T05:59:48;1.00;99.90
14061;DHT22;7105;43.616;1.434;2023-02-28T06:02:15;0.90;99.90
14061;DHT22;7105;43.616;1.434;2023-02-28T06:04:42;0.90;99.90
14061;DHT22;7105;43.616;1.434;2023-02-28T06:07:09;0.80;99.90
14061;DHT22;7105;43.616;1.434;2023-02-28T06:09:35;0.80;99.90
14061;DHT22;7105;43.616;1.434;2023-02-28T06:12:02;0.80;99.90
14061;DHT22;7105;43.616;1.434;2023-02-28T06:14:31;0.80;99.90
14061;DHT22;7105;43.616;1.434;2023-02-28T06:16:58;0.80;99.90
14061;DHT22;7105;43.616;1.434;2023-02-28T06:19:23;0.70;99.90
14061;DHT22;7105;43.616;1.434;2023-02-28T06:21:51;0.70;99.90
14061;DHT22;7105;43.616;1.434;2023-02-28T06:24:19;0.70;99.90
14061;DHT22;7105;43.616;1.434;2023-02-28T06:26:45;0.60;99.90
14061;DHT22;7105;43.616;1.434;2023-02-28T06:29:10;0.70;99.90
14061;DHT22;7105;43.616;1.434;2023-02-28T06:31:36;0.70;99.90
14061;DHT22;7105;43.616;1.434;2023-02-28T06:34:04;0.70;99.90
14061;DHT22;7105;43.616;1.434;2023-02-28T06:36:29;0.80;99.90
14061;DHT22;7105;43.616;1.434;2023-02-28T06:38:55;0.80;99.90
14061;DHT22;7105;43.616;1.434;2023-02-28T06:41:26;0.80;99.90
14061;DHT22;7105;43.616;1.434;2023-02-28T06:43:52;0.80;99.90
14061;DHT22;7105;43.616;1.434;2023-02-28T06:46:18;0.90;99.90
14061;DHT22;7105;43.616;1.434;2023-02-28T06:48:44;1.00;99.90
14061;DHT22;7105;43.616;1.434;2023-02-28T06:51:16;0.90;99.90
14061;DHT22;7105;43.616;1.434;2023-02-28T06:53:42;0.90;99.90
14061;DHT22;7105;43.616;1.434;2023-02-28T06:56:11;0.90;99.90
14061;DHT22;7105;43.616;1.434;2023-02-28T06:58:37;0.90;99.90
14061;DHT22;7105;43.616;1.434;2023-02-28T07:01:05;0.90;99.90
14061;DHT22;7105;43.616;1.434;2023-02-28T07:03:31;1.00;99.90
14061;DHT22;7105;43.616;1.434;2023-02-28T07:05:57;1.10;99.90
14061;DHT22;7105;43.616;1.434;2023-02-28T07:08:23;1.10;99.90
14061;DHT22;7105;43.616;1.434;2023-02-28T07:10:53;1.20;99.90
14061;DHT22;7105;43.616;1.434;2023-02-28T07:13:19;1.30;99.90
14061;DHT22;7105;43.616;1.434;2023-02-28T07:15:56;1.40;99.90
14061;DHT22;7105;43.616;1.434;2023-02-28T07:18:22;1.50;99.90
14061;DHT22;7105;43.616;1.434;2023-02-28T07:20:48;1.40;99.90
14061;DHT22;7105;43.616;1.434;2023-02-28T07:23:13;1.60;99.90
14061;DHT22;7105;43.616;1.434;2023-02-28T07:25:39;1.60;99.90
14061;DHT22;7105;43.616;1.434;2023-02-28T07:28:05;1.50;99.90
14061;DHT22;7105;43.616;1.434;2023-02-28T07:30:30;1.50;99.90
14061;DHT22;7105;43.616;1.434;2023-02-28T07:32:56;1.50;99.90
14061;DHT22;7105;43.616;1.434;2023-02-28T07:35:22;1.50;99.90
14061;DHT22;7105;43.616;1.434;2023-02-28T07:37:48;1.60;99.90
14061;DHT22;7105;43.616;1.434;2023-02-28T07:40:14;1.70;99.90
14061;DHT22;7105;43.616;1.434;2023-02-28T07:42:41;1.80;99.90
14061;DHT22;7105;43.616;1.434;2023-02-28T07:45:08;1.90;99.90
14061;DHT22;7105;43.616;1.434;2023-02-28T07:47:40;2.20;99.90
14061;DHT22;7105;43.616;1.434;2023-02-28T07:50:08;2.40;99.90
14061;DHT22;7105;43.616;1.434;2023-02-28T07:52:34;2.60;99.90
14061;DHT22;7105;43.616;1.434;2023-02-28T07:55:00;2.80;99.90
14061;DHT22;7105;43.616;1.434;2023-02-28T07:57:25;2.90;99.90
14061;DHT22;7105;43.616;1.434;2023-02-28T07:59:51;2.90;99.90
14061;DHT22;7105;43.616;1.434;2023-02-28T08:02:18;3.20;99.90
14061;DHT22;7105;43.616;1.434;2023-02-28T08:04:44;3.90;99.90
14061;DHT22;7105;43.616;1.434;2023-02-28T08:07:10;6.70;99.90
14061;DHT22;7105;43.616;1.434;2023-02-28T08:09:39;7.20;99.90
14061;DHT22;7105;43.616;1.434;2023-02-28T08:12:05;9.70;99.90
14061;DHT22;7105;43.616;1.434;2023-02-28T08:14:31;11.10;99.90
14061;DHT22;7105;43.616;1.434;2023-02-28T08:16:57;11.50;99.90
14061;DHT22;7105;43.616;1.434;2023-02-28T08:19:22;10.90;99.90
14061;DHT22;7105;43.616;1.434;2023-02-28T08:21:48;8.10;99.90
14061;DHT22;7105;43.616;1.434;2023-02-28T08:24:13;11.60;99.90
14061;DHT22;7105;43.616;1.434;2023-02-28T08:26:39;12.20;99.90
14061;DHT22;7105;43.616;1.434;2023-02-28T08:29:05;10.20;99.90
14061;DHT22;7105;43.616;1.434;2023-02-28T08:31:31;9.00;99.90
14061;DHT22;7105;43.616;1.434;2023-02-28T08:33:56;9.60;99.90
14061;DHT22;7105;43.616;1.434;2023-02-28T08:36:24;9.50;99.90
14061;DHT22;7105;43.616;1.434;2023-02-28T08:38:50;8.00;99.90
14061;DHT22;7105;43.616;1.434;2023-02-28T08:41:16;6.90;99.90
14061;DHT22;7105;43.616;1.434;2023-02-28T08:43:42;6.60;99.90
14061;DHT22;7105;43.616;1.434;2023-02-28T08:46:10;5.80;99.90
14061;DHT22;7105;43.616;1.434;2023-02-28T08:48:36;5.50;99.90
14061;DHT22;7105;43.616;1.434;2023-02-28T08:51:16;5.50;99.90
14061;DHT22;7105;43.616;1.434;2023-02-28T08:53:44;5.50;99.90
14061;DHT22;7105;43.616;1.434;2023-02-28T08:56:12;5.70;99.90
14061;DHT22;7105;43.616;1.434;2023-02-28T08:58:38;5.00;99.90
14061;DHT22;7105;43.616;1.434;2023-02-28T09:03:38;4.00;99.90
14061;DHT22;7105;43.616;1.434;2023-02-28T09:06:04;3.90;99.90
14061;DHT22;7105;43.616;1.434;2023-02-28T09:08:30;3.90;99.90
14061;DHT22;7105;43.616;1.434;2023-02-28T09:10:56;4.10;99.90
14061;DHT22;7105;43.616;1.434;2023-02-28T09:13:24;4.10;99.90
14061;DHT22;7105;43.616;1.434;2023-02-28T09:15:50;6.20;99.90
14061;DHT22;7105;43.616;1.434;2023-02-28T09:18:16;5.50;99.90
14061;DHT22;7105;43.616;1.434;2023-02-28T09:20:43;5.40;99.90
14061;DHT22;7105;43.616;1.434;2023-02-28T09:23:10;5.00;99.90
14061;DHT22;7105;43.616;1.434;2023-02-28T09:25:36;5.30;99.90
14061;DHT22;7105;43.616;1.434;2023-02-28T09:28:03;6.50;99.90
14061;DHT22;7105;43.616;1.434;2023-02-28T09:30:29;7.40;99.90
14061;DHT22;7105;43.616;1.434;2023-02-28T09:32:55;6.00;99.90
14061;DHT22;7105;43.616;1.434;2023-02-28T09:35:22;6.30;99.90
14061;DHT22;7105;43.616;1.434;2023-02-28T09:37:49;4.70;99.90
14061;DHT22;7105;43.616;1.434;2023-02-28T09:40:15;4.40;99.90
14061;DHT22;7105;43.616;1.434;2023-02-28T09:42:46;4.10;99.90
14061;DHT22;7105;43.616;1.434;2023-02-28T09:47:52;4.80;99.90
14061;DHT22;7105;43.616;1.434;2023-02-28T09:50:35;4.70;99.90
14061;DHT22;7105;43.616;1.434;2023-02-28T09:53:10;5.00;99.90
14061;DHT22;7105;43.616;1.434;2023-02-28T09:55:45;4.90;99.90
14061;DHT22;7105;43.616;1.434;2023-02-28T10:01:03;4.60;99.90
14061;DHT22;7105;43.616;1.434;2023-02-28T10:03:36;4.90;99.90
14061;DHT22;7105;43.616;1.434;2023-02-28T10:08:42;5.30;99.90
14061;DHT22;7105;43.616;1.434;2023-02-28T10:11:15;6.20;99.90
14061;DHT22;7105;43.616;1.434;2023-02-28T10:13:59;5.30;99.90
14061;DHT22;7105;43.616;1.434;2023-02-28T10:16:33;5.10;99.90
14061;DHT22;7105;43.616;1.434;2023-02-28T10:19:11;5.00;99.90
14061;DHT22;7105;43.616;1.434;2023-02-28T10:22:05;4.70;99.90
14061;DHT22;7105;43.616;1.434;2023-02-28T10:24:53;4.70;99.90
14061;DHT22;7105;43.616;1.434;2023-02-28T10:27:24;4.70;99.90
14061;DHT22;7105;43.616;1.434;2023-02-28T10:29:52;4.60;99.90
14061;DHT22;7105;43.616;1.434;2023-02-28T10:32:20;4.30;99.90
14061;DHT22;7105;43.616;1.434;2023-02-28T10:37:24;4.50;99.90
14061;DHT22;7105;43.616;1.434;2023-02-28T10:39:50;4.60;99.90
14061;DHT22;7105;43.616;1.434;2023-02-28T10:42:27;4.40;99.90
14061;DHT22;7105;43.616;1.434;2023-02-28T10:47:33;4.80;99.90
14061;DHT22;7105;43.616;1.434;2023-02-28T10:50:00;4.90;99.90
14061;DHT22;7105;43.616;1.434;2023-02-28T10:52:37;5.00;99.90
14061;DHT22;7105;43.616;1.434;2023-02-28T10:55:22;5.60;99.90
14061;DHT22;7105;43.616;1.434;2023-02-28T10:57:49;5.50;99.90
14061;DHT22;7105;43.616;1.434;2023-02-28T11:02:42;4.80;99.90
14061;DHT22;7105;43.616;1.434;2023-02-28T11:10:31;4.80;99.90
14061;DHT22;7105;43.616;1.434;2023-02-28T11:13:01;4.70;99.90
14061;DHT22;7105;43.616;1.434;2023-02-28T11:15:30;5.00;99.90
14061;DHT22;7105;43.616;1.434;2023-02-28T11:20:37;5.10;99.90
14061;DHT22;7105;43.616;1.434;2023-02-28T11:23:04;4.90;99.90
14061;DHT22;7105;43.616;1.434;2023-02-28T11:25:33;4.80;99.90
14061;DHT22;7105;43.616;1.434;2023-02-28T11:28:30;4.90;99.90
14061;DHT22;7105;43.616;1.434;2023-02-28T11:36:25;5.60;99.90
14061;DHT22;7105;43.616;1.434;2023-02-28T11:38:53;5.70;99.90
14061;DHT22;7105;43.616;1.434;2023-02-28T11:44:08;5.60;99.90
14061;DHT22;7105;43.616;1.434;2023-02-28T11:52:21;6.00;99.90
14061;DHT22;7105;43.616;1.434;2023-02-28T12:00:31;5.70;99.90
14061;DHT22;7105;43.616;1.434;2023-02-28T12:05:41;6.00;99.90
14061;DHT22;7105;43.616;1.434;2023-02-28T12:14:40;6.10;99.90
14061;DHT22;7105;43.616;1.434;2023-02-28T12:20:18;6.40;99.90
14061;DHT22;7105;43.616;1.434;2023-02-28T12:25:50;6.20;99.90
14061;DHT22;7105;43.616;1.434;2023-02-28T12:28:23;6.20;99.90
14061;DHT22;7105;43.616;1.434;2023-02-28T12:31:14;6.00;99.90
14061;DHT22;7105;43.616;1.434;2023-02-28T12:33:46;6.00;99.90
14061;DHT22;7105;43.616;1.434;2023-02-28T12:36:18;6.10;99.90
14061;DHT22;7105;43.616;1.434;2023-02-28T12:39:06;6.10;99.90
14061;DHT22;7105;43.616;1.434;2023-02-28T12:41:48;6.30;99.90
14061;DHT22;7105;43.616;1.434;2023-02-28T12:44:30;6.30;99.90
14061;DHT22;7105;43.616;1.434;2023-02-28T12:47:05;6.30;99.90
14061;DHT22;7105;43.616;1.434;2023-02-28T12:49:41;6.30;99.90
14061;DHT22;7105;43.616;1.434;2023-02-28T12:52:08;6.30;99.90
14061;DHT22;7105;43.616;1.434;2023-02-28T12:54:40;6.30;99.90
14061;DHT22;7105;43.616;1.434;2023-02-28T12:57:19;6.10;99.90
14061;DHT22;7105;43.616;1.434;2023-02-28T12:59:59;6.00;99.90
14061;DHT22;7105;43.616;1.434;2023-02-28T13:10:00;6.10;99.90
14061;DHT22;7105;43.616;1.434;2023-02-28T13:12:28;6.10;99.90
14061;DHT22;7105;43.616;1.434;2023-02-28T13:17:50;6.30;99.90
14061;DHT22;7105;43.616;1.434;2023-02-28T13:20:25;6.30;99.90
14061;DHT22;7105;43.616;1.434;2023-02-28T13:22:53;6.00;99.90
14061;DHT22;7105;43.616;1.434;2023-02-28T13:27:53;6.00;99.90
14061;DHT22;7105;43.616;1.434;2023-02-28T13:33:36;5.80;99.90
14061;DHT22;7105;43.616;1.434;2023-02-28T13:39:01;5.70;99.90
14061;DHT22;7105;43.616;1.434;2023-02-28T13:44:05;5.80;99.90
14061;DHT22;7105;43.616;1.434;2023-02-28T13:46:32;6.40;99.90
14061;DHT22;7105;43.616;1.434;2023-02-28T13:49:34;6.40;99.90
14061;DHT22;7105;43.616;1.434;2023-02-28T13:54:56;6.30;99.90
14061;DHT22;7105;43.616;1.434;2023-02-28T14:00:33;6.30;99.90
14061;DHT22;7105;43.616;1.434;2023-02-28T14:05:35;6.10;99.90
14061;DHT22;7105;43.616;1.434;2023-02-28T14:08:22;6.30;99.90
14061;DHT22;7105;43.616;1.434;2023-02-28T14:10:50;6.30;99.90
14061;DHT22;7105;43.616;1.434;2023-02-28T14:16:11;6.10;99.90
14061;DHT22;7105;43.616;1.434;2023-02-28T14:18:42;6.00;99.90
14061;DHT22;7105;43.616;1.434;2023-02-28T14:21:24;6.10;99.90
14061;DHT22;7105;43.616;1.434;2023-02-28T14:24:01;5.90;99.90
14061;DHT22;7105;43.616;1.434;2023-02-28T14:29:52;5.70;99.90
14061;DHT22;7105;43.616;1.434;2023-02-28T14:32:30;5.60;99.90
14061;DHT22;7105;43.616;1.434;2023-02-28T14:37:42;5.80;99.90
14061;DHT22;7105;43.616;1.434;2023-02-28T14:40:16;5.80;99.90
14061;DHT22;7105;43.616;1.434;2023-02-28T14:42:48;6.00;99.90
14061;DHT22;7105;43.616;1.434;2023-02-28T14:45:20;5.70;99.90
14061;DHT22;7105;43.616;1.434;2023-02-28T14:47:49;5.70;99.90
14061;DHT22;7105;43.616;1.434;2023-02-28T14:50:21;5.70;99.90
14061;DHT22;7105;43.616;1.434;2023-02-28T14:52:48;5.80;99.90
14061;DHT22;7105;43.616;1.434;2023-02-28T14:55:18;5.70;99.90
14061;DHT22;7105;43.616;1.434;2023-02-28T14:57:56;5.70;99.90
14061;DHT22;7105;43.616;1.434;2023-02-28T15:00:28;5.80;99.90
14061;DHT22;7105;43.616;1.434;2023-02-28T15:02:55;5.80;99.90
14061;DHT22;7105;43.616;1.434;2023-02-28T15:05:31;6.10;99.90
14061;DHT22;7105;43.616;1.434;2023-02-28T15:08:15;6.10;99.90
14061;DHT22;7105;43.616;1.434;2023-02-28T15:10:55;5.80;99.90
14061;DHT22;7105;43.616;1.434;2023-02-28T15:13:24;5.70;99.90
14061;DHT22;7105;43.616;1.434;2023-02-28T15:15:56;5.70;99.90
14061;DHT22;7105;43.616;1.434;2023-02-28T15:18:30;5.70;99.90
14061;DHT22;7105;43.616;1.434;2023-02-28T15:21:02;5.70;99.90
14061;DHT22;7105;43.616;1.434;2023-02-28T15:23:29;5.70;99.90
14061;DHT22;7105;43.616;1.434;2023-02-28T15:25:56;5.70;99.90
14061;DHT22;7105;43.616;1.434;2023-02-28T15:28:22;5.40;99.90
14061;DHT22;7105;43.616;1.434;2023-02-28T15:30:58;5.40;99.90
14061;DHT22;7105;43.616;1.434;2023-02-28T15:33:30;5.40;99.90
14061;DHT22;7105;43.616;1.434;2023-02-28T15:38:38;5.40;99.90
14061;DHT22;7105;43.616;1.434;2023-02-28T15:41:03;5.30;99.90
14061;DHT22;7105;43.616;1.434;2023-02-28T15:43:38;5.70;99.90
14061;DHT22;7105;43.616;1.434;2023-02-28T15:46:12;5.90;99.90
14061;DHT22;7105;43.616;1.434;2023-02-28T15:48:52;5.50;99.90
14061;DHT22;7105;43.616;1.434;2023-02-28T15:51:21;5.20;99.90
14061;DHT22;7105;43.616;1.434;2023-02-28T15:53:51;5.20;99.90
14061;DHT22;7105;43.616;1.434;2023-02-28T15:56:47;5.20;99.90
14061;DHT22;7105;43.616;1.434;2023-02-28T15:59:37;5.20;99.90
14061;DHT22;7105;43.616;1.434;2023-02-28T16:04:53;5.20;99.90
14061;DHT22;7105;43.616;1.434;2023-02-28T16:07:19;5.30;99.90
14061;DHT22;7105;43.616;1.434;2023-02-28T16:09:45;5.30;99.90
14061;DHT22;7105;43.616;1.434;2023-02-28T16:12:12;5.20;99.90
14061;DHT22;7105;43.616;1.434;2023-02-28T16:14:39;5.10;99.90
14061;DHT22;7105;43.616;1.434;2023-02-28T16:17:12;5.00;99.90
14061;DHT22;7105;43.616;1.434;2023-02-28T16:19:42;4.90;99.90
14061;DHT22;7105;43.616;1.434;2023-02-28T16:22:09;5.00;99.90
14061;DHT22;7105;43.616;1.434;2023-02-28T16:24:35;5.20;99.90
14061;DHT22;7105;43.616;1.434;2023-02-28T16:27:00;5.20;99.90
14061;DHT22;7105;43.616;1.434;2023-02-28T16:29:31;5.00;99.90
14061;DHT22;7105;43.616;1.434;2023-02-28T16:31:58;4.90;99.90
14061;DHT22;7105;43.616;1.434;2023-02-28T16:34:24;4.80;99.90
14061;DHT22;7105;43.616;1.434;2023-02-28T16:36:50;4.80;99.90
14061;DHT22;7105;43.616;1.434;2023-02-28T16:39:16;4.70;99.90
14061;DHT22;7105;43.616;1.434;2023-02-28T16:41:43;4.80;99.90
14061;DHT22;7105;43.616;1.434;2023-02-28T16:44:27;4.80;99.90
14061;DHT22;7105;43.616;1.434;2023-02-28T16:46:54;4.70;99.90
14061;DHT22;7105;43.616;1.434;2023-02-28T16:49:20;4.70;99.90
14061;DHT22;7105;43.616;1.434;2023-02-28T16:51:46;4.60;99.90
14061;DHT22;7105;43.616;1.434;2023-02-28T16:54:12;4.50;99.90
14061;DHT22;7105;43.616;1.434;2023-02-28T16:56:40;4.50;99.90
14061;DHT22;7105;43.616;1.434;2023-02-28T16:59:09;4.50;99.90
14061;DHT22;7105;43.616;1.434;2023-02-28T17:01:35;4.70;99.90
14061;DHT22;7105;43.616;1.434;2023-02-28T17:04:01;5.00;99.90
14061;DHT22;7105;43.616;1.434;2023-02-28T17:06:28;4.70;99.90
14061;DHT22;7105;43.616;1.434;2023-02-28T17:08:54;4.60;99.90
14061;DHT22;7105;43.616;1.434;2023-02-28T17:11:21;4.50;99.90
14061;DHT22;7105;43.616;1.434;2023-02-28T17:13:47;4.50;99.90
14061;DHT22;7105;43.616;1.434;2023-02-28T17:18:42;4.50;99.90
14061;DHT22;7105;43.616;1.434;2023-02-28T17:21:16;4.50;99.90
14061;DHT22;7105;43.616;1.434;2023-02-28T17:23:42;4.40;99.90
14061;DHT22;7105;43.616;1.434;2023-02-28T17:26:16;4.40;99.90
14061;DHT22;7105;43.616;1.434;2023-02-28T17:28:46;4.30;99.90
14061;DHT22;7105;43.616;1.434;2023-02-28T17:31:12;4.30;99.90
14061;DHT22;7105;43.616;1.434;2023-02-28T17:33:38;4.30;99.90
14061;DHT22;7105;43.616;1.434;2023-02-28T17:36:04;4.20;99.90
14061;DHT22;7105;43.616;1.434;2023-02-28T17:38:30;4.10;99.90
14061;DHT22;7105;43.616;1.434;2023-02-28T17:40:55;4.40;99.90
14061;DHT22;7105;43.616;1.434;2023-02-28T17:43:26;4.50;99.90
14061;DHT22;7105;43.616;1.434;2023-02-28T17:45:52;4.30;99.90
14061;DHT22;7105;43.616;1.434;2023-02-28T17:48:18;4.20;99.90
14061;DHT22;7105;43.616;1.434;2023-02-28T17:50:44;4.20;99.90
14061;DHT22;7105;43.616;1.434;2023-02-28T17:53:10;4.10;99.90
14061;DHT22;7105;43.616;1.434;2023-02-28T17:55:36;4.20;99.90
14061;DHT22;7105;43.616;1.434;2023-02-28T17:58:02;4.20;99.90
14061;DHT22;7105;43.616;1.434;2023-02-28T18:00:29;4.30;99.90
14061;DHT22;7105;43.616;1.434;2023-02-28T18:02:58;4.10;99.90
14061;DHT22;7105;43.616;1.434;2023-02-28T18:05:24;4.10;99.90
14061;DHT22;7105;43.616;1.434;2023-02-28T18:07:50;4.10;99.90
14061;DHT22;7105;43.616;1.434;2023-02-28T18:10:18;4.00;99.90
14061;DHT22;7105;43.616;1.434;2023-02-28T18:12:50;4.20;99.90
14061;DHT22;7105;43.616;1.434;2023-02-28T18:15:17;4.40;99.90
14061;DHT22;7105;43.616;1.434;2023-02-28T18:17:43;4.20;99.90
14061;DHT22;7105;43.616;1.434;2023-02-28T18:20:11;4.10;99.90
14061;DHT22;7105;43.616;1.434;2023-02-28T18:22:38;4.00;99.90
14061;DHT22;7105;43.616;1.434;2023-02-28T18:25:05;4.00;99.90
14061;DHT22;7105;43.616;1.434;2023-02-28T18:27:31;4.10;99.90
14061;DHT22;7105;43.616;1.434;2023-02-28T18:29:56;4.10;99.90
14061;DHT22;7105;43.616;1.434;2023-02-28T18:32:22;4.00;99.90
14061;DHT22;7105;43.616;1.434;2023-02-28T18:34:48;3.90;99.90
14061;DHT22;7105;43.616;1.434;2023-02-28T18:37:14;4.00;99.90